Time;durP1;ratioP1;P1;durP2;ratioP2;P2;SDS_P1;SDS_P2;PMS_P1;PMS_P2;Temp;Humidity;BMP_temperature;BMP_pressure;BME280_temperature;BME280_humidity;BME280_pressure;Samples;Min_cycle;Max_cycle;Signal;HPM_P1;HPM_P2
2021/08/14 00:00:24;;;;;;;26.52;12.55;;;;;;;;;;5049336;28;20119;-63
2021/08/14 00:02:50;;;;;;;24.92;12.35;;;;;;;;;;5040578;28;20024;-66
2021/08/14 00:05:15;;;;;;;23.30;11.48;;;;;;;;;;5049507;28;20020;-66
2021/08/14 00:07:40;;;;;;;22.52;11.90;;;;;;;;;;5043622;28;20061;-63
2021/08/14 00:10:06;;;;;;;23.65;12.13;;;;;;;;;;5043468;28;20064;-64
2021/08/14 00:12:32;;;;;;;23.55;11.55;;;;;;;;;;5035887;28;20074;-65
2021/08/14 00:14:57;;;;;;;21.75;11.75;;;;;;;;;;5039163;28;20028;-64
2021/08/14 00:17:23;;;;;;;22.35;11.38;;;;;;;;;;5038238;28;20033;-63
2021/08/14 00:19:48;;;;;;;22.38;11.93;;;;;;;;;;5045270;28;20021;-63
2021/08/14 00:22:14;;;;;;;21.98;11.93;;;;;;;;;;5037923;28;20068;-63
2021/08/14 00:24:39;;;;;;;25.20;11.82;;;;;;;;;;5034636;28;20032;-64
2021/08/14 00:27:05;;;;;;;21.70;11.60;;;;;;;;;;5042249;28;20173;-63
2021/08/14 00:29:30;;;;;;;27.65;13.70;;;;;;;;;;5041494;28;20024;-65
2021/08/14 00:31:55;;;;;;;20.70;11.85;;;;;;;;;;5043807;28;20021;-64
2021/08/14 00:34:21;;;;;;;25.65;11.93;;;;;;;;;;5046052;28;20029;-63
2021/08/14 00:36:46;;;;;;;21.85;12.05;;;;;;;;;;5042900;28;20391;-66
2021/08/14 00:39:11;;;;;;;23.02;11.68;;;;;;;;;;5047581;28;20336;-64
2021/08/14 00:41:37;;;;;;;20.55;11.57;;;;;;;;;;5042439;28;20119;-63
2021/08/14 00:44:03;;;;;;;25.85;12.63;;;;;;;;;;5044159;28;20024;-65
2021/08/14 00:46:30;;;;;;;23.42;12.45;;;;;;;;;;5036916;28;20030;-64
2021/08/14 00:48:57;;;;;;;21.77;11.75;;;;;;;;;;5045998;28;20025;-64
2021/08/14 00:51:22;;;;;;;22.85;12.27;;;;;;;;;;5043386;28;20072;-64
2021/08/14 00:53:48;;;;;;;23.05;11.23;;;;;;;;;;5041740;28;20041;-64
2021/08/14 00:56:13;;;;;;;21.38;12.48;;;;;;;;;;5043249;28;20541;-64
2021/08/14 00:58:39;;;;;;;21.98;11.75;;;;;;;;;;5038198;28;20601;-65
2021/08/14 01:01:04;;;;;;;20.58;11.95;;;;;;;;;;5046681;28;20191;-64
2021/08/14 01:03:30;;;;;;;20.17;12.20;;;;;;;;;;5045979;28;20563;-64
2021/08/14 01:05:56;;;;;;;22.02;11.75;;;;;;;;;;5044982;28;20058;-65
2021/08/14 01:08:21;;;;;;;26.65;12.00;;;;;;;;;;5042898;28;20033;-64
2021/08/14 01:10:47;;;;;;;20.85;11.70;;;;;;;;;;5046128;28;20078;-65
2021/08/14 01:13:12;;;;;;;24.83;12.60;;;;;;;;;;5040412;28;20029;-65
2021/08/14 01:15:48;;;;;;;21.10;11.90;;;;;;;;;;5037386;28;20033;-64
2021/08/14 01:18:16;;;;;;;25.08;12.13;;;;;;;;;;5037812;28;20433;-63
2021/08/14 01:20:43;;;;;;;23.40;11.15;;;;;;;;;;5040969;28;20211;-65
2021/08/14 01:23:10;;;;;;;21.05;12.02;;;;;;;;;;5040435;28;20090;-65
2021/08/14 01:25:35;;;;;;;24.30;12.10;;;;;;;;;;5039674;28;20034;-65
2021/08/14 01:28:01;;;;;;;23.30;12.07;;;;;;;;;;5040067;28;20035;-64
2021/08/14 01:30:27;;;;;;;25.23;12.02;;;;;;;;;;5043853;28;20033;-64
2021/08/14 01:32:52;;;;;;;24.13;12.85;;;;;;;;;;5041231;28;20052;-65
2021/08/14 01:35:18;;;;;;;22.92;13.18;;;;;;;;;;5043918;28;20023;-63
2021/08/14 01:37:43;;;;;;;26.80;12.93;;;;;;;;;;5040977;28;20017;-65
2021/08/14 01:40:09;;;;;;;21.65;11.65;;;;;;;;;;5047109;28;20040;-65
2021/08/14 01:42:34;;;;;;;22.98;11.93;;;;;;;;;;5044012;28;20102;-64
2021/08/14 01:45:00;;;;;;;23.88;13.45;;;;;;;;;;5045958;28;20036;-66
2021/08/14 01:47:26;;;;;;;23.02;11.88;;;;;;;;;;5037521;28;20106;-64
2021/08/14 01:49:51;;;;;;;25.50;12.23;;;;;;;;;;5038899;28;20052;-63
2021/08/14 01:52:17;;;;;;;23.90;10.88;;;;;;;;;;5038504;28;20028;-65
2021/08/14 01:54:43;;;;;;;23.63;12.23;;;;;;;;;;5039196;28;21634;-63
2021/08/14 01:57:09;;;;;;;22.83;12.38;;;;;;;;;;5039291;28;20033;-64
2021/08/14 01:59:36;;;;;;;27.95;11.75;;;;;;;;;;5035355;28;20119;-64
2021/08/14 02:02:02;;;;;;;23.75;11.95;;;;;;;;;;5040521;28;20059;-64
2021/08/14 02:04:28;;;;;;;21.65;12.00;;;;;;;;;;5044464;28;20498;-64
2021/08/14 02:06:54;;;;;;;24.30;12.15;;;;;;;;;;5036805;28;20025;-64
2021/08/14 02:09:19;;;;;;;22.38;12.25;;;;;;;;;;5047564;28;20044;-63
2021/08/14 02:11:45;;;;;;;24.92;12.18;;;;;;;;;;5043761;28;20075;-63
2021/08/14 02:14:12;;;;;;;27.25;12.45;;;;;;;;;;5038694;28;20037;-63
2021/08/14 02:16:37;;;;;;;25.90;13.88;;;;;;;;;;5044317;28;20032;-64
2021/08/14 02:19:03;;;;;;;29.42;12.40;;;;;;;;;;5036994;28;20021;-65
2021/08/14 02:21:29;;;;;;;25.60;12.90;;;;;;;;;;5043633;28;20029;-64
2021/08/14 02:23:55;;;;;;;22.15;12.20;;;;;;;;;;5048659;28;20032;-63
2021/08/14 02:26:21;;;;;;;19.90;12.45;;;;;;;;;;5044252;28;20505;-63
2021/08/14 02:28:46;;;;;;;23.55;12.40;;;;;;;;;;5037967;28;20041;-64
2021/08/14 02:31:12;;;;;;;20.80;12.93;;;;;;;;;;5043595;28;20117;-63
2021/08/14 02:33:38;;;;;;;22.08;11.90;;;;;;;;;;5046276;28;20040;-63
2021/08/14 02:36:04;;;;;;;22.88;11.90;;;;;;;;;;5046812;28;20116;-64
2021/08/14 02:38:30;;;;;;;20.45;12.48;;;;;;;;;;5044068;28;20017;-64
2021/08/14 02:40:56;;;;;;;21.50;11.65;;;;;;;;;;5044003;28;20101;-65
2021/08/14 02:43:21;;;;;;;21.60;11.95;;;;;;;;;;5043449;28;20120;-64
2021/08/14 02:45:47;;;;;;;24.08;12.43;;;;;;;;;;5045543;28;20504;-65
2021/08/14 02:48:13;;;;;;;30.67;12.73;;;;;;;;;;5045715;28;20111;-64
2021/08/14 02:50:42;;;;;;;20.92;12.02;;;;;;;;;;5041749;28;20044;-64
2021/08/14 02:53:08;;;;;;;21.95;13.13;;;;;;;;;;5043967;28;20033;-65
2021/08/14 02:55:34;;;;;;;23.55;12.50;;;;;;;;;;5044714;28;20446;-63
2021/08/14 02:57:59;;;;;;;22.73;12.00;;;;;;;;;;5039204;28;20069;-65
2021/08/14 03:00:24;;;;;;;21.98;12.18;;;;;;;;;;5041668;28;20044;-64
2021/08/14 03:02:50;;;;;;;20.77;11.60;;;;;;;;;;5042087;28;20254;-65
2021/08/14 03:05:15;;;;;;;21.95;12.40;;;;;;;;;;5047865;28;20110;-64
2021/08/14 03:07:41;;;;;;;22.50;11.70;;;;;;;;;;5042613;28;20033;-64
2021/08/14 03:10:07;;;;;;;25.10;13.05;;;;;;;;;;5047592;28;20403;-65
2021/08/14 03:12:32;;;;;;;22.45;12.48;;;;;;;;;;5040161;28;20411;-63
2021/08/14 03:14:57;;;;;;;22.23;12.38;;;;;;;;;;5047359;28;20036;-64
2021/08/14 03:17:23;;;;;;;22.88;12.48;;;;;;;;;;5039776;28;20020;-64
2021/08/14 03:19:48;;;;;;;27.40;12.32;;;;;;;;;;5038338;28;20021;-64
2021/08/14 03:22:14;;;;;;;24.20;12.40;;;;;;;;;;5042948;28;20025;-65
2021/08/14 03:24:39;;;;;;;21.83;11.98;;;;;;;;;;5043197;28;20146;-65
2021/08/14 03:27:06;;;;;;;19.63;11.65;;;;;;;;;;5041884;28;20028;-64
2021/08/14 03:29:32;;;;;;;20.00;11.40;;;;;;;;;;5039244;28;20021;-64
2021/08/14 03:31:57;;;;;;;22.10;11.82;;;;;;;;;;5046924;28;20128;-65
2021/08/14 03:34:23;;;;;;;22.20;11.82;;;;;;;;;;5043173;28;20040;-63
2021/08/14 03:36:48;;;;;;;23.45;12.35;;;;;;;;;;5040242;28;20541;-64
2021/08/14 03:39:13;;;;;;;23.13;12.93;;;;;;;;;;5042997;28;20483;-65
2021/08/14 03:41:39;;;;;;;24.02;12.73;;;;;;;;;;5036677;28;20040;-64
2021/08/14 03:44:05;;;;;;;23.88;11.95;;;;;;;;;;5040897;28;20029;-64
2021/08/14 03:46:31;;;;;;;21.77;12.00;;;;;;;;;;5044655;28;20045;-64
2021/08/14 03:48:56;;;;;;;24.55;11.98;;;;;;;;;;5043313;28;20044;-65
2021/08/14 03:51:22;;;;;;;21.50;12.88;;;;;;;;;;5041064;28;20029;-63
2021/08/14 03:53:47;;;;;;;21.90;13.35;;;;;;;;;;5040260;28;20530;-64
2021/08/14 03:56:13;;;;;;;22.63;12.18;;;;;;;;;;5036820;28;20400;-64
2021/08/14 03:58:38;;;;;;;25.77;12.60;;;;;;;;;;5036682;28;20029;-63
2021/08/14 04:01:04;;;;;;;22.95;12.02;;;;;;;;;;5045603;28;20028;-65
2021/08/14 04:03:30;;;;;;;27.90;12.80;;;;;;;;;;5041319;28;20025;-65
2021/08/14 04:05:56;;;;;;;21.48;12.07;;;;;;;;;;5043038;28;20507;-63
2021/08/14 04:08:21;;;;;;;27.15;12.43;;;;;;;;;;5040874;28;20032;-64
2021/08/14 04:10:47;;;;;;;22.52;12.57;;;;;;;;;;5038389;28;20035;-63
2021/08/14 04:13:12;;;;;;;20.55;12.10;;;;;;;;;;5042461;28;20062;-65
2021/08/14 04:15:38;;;;;;;22.33;12.00;;;;;;;;;;5042251;28;20028;-63
2021/08/14 04:18:03;;;;;;;23.45;12.38;;;;;;;;;;5035518;28;20119;-64
2021/08/14 04:20:29;;;;;;;25.38;12.05;;;;;;;;;;5046738;28;20415;-65
2021/08/14 04:22:54;;;;;;;26.00;12.40;;;;;;;;;;5042715;28;20291;-65
2021/08/14 04:25:20;;;;;;;23.88;12.95;;;;;;;;;;5040510;28;20121;-64
2021/08/14 04:27:45;;;;;;;24.17;12.93;;;;;;;;;;5040503;28;20396;-65
2021/08/14 04:30:11;;;;;;;21.90;12.18;;;;;;;;;;5042489;28;20027;-64
2021/08/14 04:32:37;;;;;;;20.85;12.05;;;;;;;;;;5037056;28;20546;-65
2021/08/14 04:35:06;;;;;;;25.27;13.32;;;;;;;;;;5038126;28;20040;-65
2021/08/14 04:37:32;;;;;;;19.75;12.00;;;;;;;;;;5044755;28;20028;-64
2021/08/14 04:39:57;;;;;;;23.30;12.55;;;;;;;;;;5045760;28;20020;-64
2021/08/14 04:42:23;;;;;;;23.77;12.50;;;;;;;;;;5038095;28;20021;-65
2021/08/14 04:44:48;;;;;;;26.17;12.63;;;;;;;;;;5042701;28;20016;-64
2021/08/14 04:47:14;;;;;;;25.80;13.07;;;;;;;;;;5043566;28;20032;-64
2021/08/14 04:49:39;;;;;;;25.55;13.52;;;;;;;;;;5038178;28;20036;-65
2021/08/14 04:52:04;;;;;;;20.80;11.77;;;;;;;;;;5046325;28;20543;-64
2021/08/14 04:54:30;;;;;;;21.40;12.98;;;;;;;;;;5042016;28;20090;-65
2021/08/14 04:56:55;;;;;;;26.42;13.65;;;;;;;;;;5038216;28;20056;-65
2021/08/14 04:59:21;;;;;;;25.38;13.15;;;;;;;;;;5038412;28;20028;-65
2021/08/14 05:01:46;;;;;;;25.75;13.55;;;;;;;;;;5040231;28;20522;-65
2021/08/14 05:04:11;;;;;;;27.77;12.98;;;;;;;;;;5043860;28;20040;-64
2021/08/14 05:06:38;;;;;;;22.05;12.63;;;;;;;;;;5043522;28;20468;-65
2021/08/14 05:09:04;;;;;;;24.00;13.18;;;;;;;;;;5039993;28;20029;-64
2021/08/14 05:11:29;;;;;;;19.95;12.40;;;;;;;;;;5038607;28;20037;-64
2021/08/14 05:13:55;;;;;;;23.10;12.52;;;;;;;;;;5042521;28;20223;-64
2021/08/14 05:16:24;;;;;;;24.05;12.68;;;;;;;;;;5034376;28;20380;-64
2021/08/14 05:18:50;;;;;;;;;;;;;;;;;;5046852;28;20453;-64
2021/08/14 05:21:15;;;;;;;18.42;11.85;;;;;;;;;;5034463;28;19920;-64
2021/08/14 05:23:40;;;;;;;25.58;13.63;;;;;;;;;;5041859;28;20025;-65
2021/08/14 05:26:06;;;;;;;22.77;12.80;;;;;;;;;;5043513;28;20079;-64
2021/08/14 05:28:31;;;;;;;24.00;13.00;;;;;;;;;;5042918;28;20029;-64
2021/08/14 05:30:57;;;;;;;25.38;13.68;;;;;;;;;;5039019;28;20468;-64
2021/08/14 05:33:22;;;;;;;21.40;13.57;;;;;;;;;;5039037;28;20067;-64
2021/08/14 05:35:48;;;;;;;26.95;14.40;;;;;;;;;;5043226;28;20052;-65
2021/08/14 05:38:13;;;;;;;24.75;14.30;;;;;;;;;;5040198;28;20043;-65
2021/08/14 05:40:38;;;;;;;22.17;13.25;;;;;;;;;;5039114;28;20480;-65
2021/08/14 05:43:04;;;;;;;23.90;13.73;;;;;;;;;;5047907;28;20037;-63
2021/08/14 05:45:29;;;;;;;25.30;13.95;;;;;;;;;;5048462;28;20105;-65
2021/08/14 05:47:55;;;;;;;26.27;14.35;;;;;;;;;;5046279;28;20503;-64
2021/08/14 05:50:20;;;;;;;24.73;14.32;;;;;;;;;;5038008;28;20116;-65
2021/08/14 05:52:46;;;;;;;24.83;14.20;;;;;;;;;;5046243;28;20390;-64
2021/08/14 05:55:11;;;;;;;22.40;13.43;;;;;;;;;;5037600;28;20033;-64
2021/08/14 05:57:37;;;;;;;26.50;14.20;;;;;;;;;;5049687;28;20550;-65
2021/08/14 06:00:04;;;;;;;26.55;14.23;;;;;;;;;;5040985;28;20033;-65
2021/08/14 06:02:30;;;;;;;28.98;15.10;;;;;;;;;;5041288;28;20444;-64
2021/08/14 06:04:55;;;;;;;26.63;14.23;;;;;;;;;;5043377;28;20041;-65
2021/08/14 06:07:20;;;;;;;25.15;14.30;;;;;;;;;;5041440;28;20031;-64
2021/08/14 06:09:46;;;;;;;24.08;13.70;;;;;;;;;;5045092;28;20090;-64
2021/08/14 06:12:11;;;;;;;25.65;14.38;;;;;;;;;;5041030;28;20442;-65
2021/08/14 06:14:37;;;;;;;26.83;14.23;;;;;;;;;;5043437;28;20025;-65
2021/08/14 06:17:03;;;;;;;25.08;13.30;;;;;;;;;;5043935;28;20124;-65
2021/08/14 06:19:28;;;;;;;23.00;14.20;;;;;;;;;;5040872;28;20393;-65
2021/08/14 06:21:54;;;;;;;26.98;14.15;;;;;;;;;;5038727;28;20024;-65
2021/08/14 06:24:20;;;;;;;24.95;15.15;;;;;;;;;;5045312;28;20021;-64
2021/08/14 06:26:45;;;;;;;21.10;13.43;;;;;;;;;;5042473;28;20458;-64
2021/08/14 06:29:10;;;;;;;23.88;14.15;;;;;;;;;;5046102;28;20238;-64
2021/08/14 06:31:36;;;;;;;26.25;14.07;;;;;;;;;;5043979;28;20036;-65
2021/08/14 06:34:01;;;;;;;21.35;12.90;;;;;;;;;;5047023;28;20052;-65
2021/08/14 06:36:26;;;;;;;24.38;14.52;;;;;;;;;;5041580;28;20076;-64
2021/08/14 06:38:52;;;;;;;23.50;14.15;;;;;;;;;;5045384;28;20025;-65
2021/08/14 06:41:17;;;;;;;25.92;14.65;;;;;;;;;;5047281;28;20021;-65
2021/08/14 06:43:43;;;;;;;24.17;14.75;;;;;;;;;;5044412;28;20056;-64
2021/08/14 06:46:08;;;;;;;28.77;14.90;;;;;;;;;;5040323;28;20038;-64
2021/08/14 06:48:35;;;;;;;23.10;14.05;;;;;;;;;;5046698;28;20021;-65
2021/08/14 06:51:01;;;;;;;24.80;14.48;;;;;;;;;;5046808;28;20029;-65
2021/08/14 06:53:26;;;;;;;22.95;14.23;;;;;;;;;;5043183;28;20036;-65
2021/08/14 06:55:52;;;;;;;23.35;14.85;;;;;;;;;;5042540;28;20460;-65
2021/08/14 06:58:17;;;;;;;28.48;14.75;;;;;;;;;;5042454;28;20399;-65
2021/08/14 07:00:42;;;;;;;28.33;14.50;;;;;;;;;;5040924;28;20047;-64
2021/08/14 07:03:11;;;;;;;26.00;14.10;;;;;;;;;;5042130;28;20113;-65
2021/08/14 07:05:40;;;;;;;25.85;14.38;;;;;;;;;;5045494;28;20079;-64
2021/08/14 07:08:06;;;;;;;27.88;15.45;;;;;;;;;;5042427;28;20086;-65
2021/08/14 07:10:32;;;;;;;25.05;14.13;;;;;;;;;;5044703;28;20390;-65
2021/08/14 07:12:57;;;;;;;25.05;14.18;;;;;;;;;;5048063;28;20098;-64
2021/08/14 07:15:22;;;;;;;23.98;13.32;;;;;;;;;;5038934;28;20391;-64
2021/08/14 07:17:48;;;;;;;25.00;14.07;;;;;;;;;;5043324;28;20024;-64
2021/08/14 07:20:14;;;;;;;23.48;13.90;;;;;;;;;;5044209;28;20037;-64
2021/08/14 07:22:39;;;;;;;22.70;13.43;;;;;;;;;;5045636;28;20427;-64
2021/08/14 07:25:05;;;;;;;25.17;13.85;;;;;;;;;;5037531;28;20437;-66
2021/08/14 07:27:31;;;;;;;22.00;14.23;;;;;;;;;;5043821;28;20032;-65
2021/08/14 07:29:56;;;;;;;25.58;13.60;;;;;;;;;;5038991;28;20077;-64
2021/08/14 07:32:22;;;;;;;19.10;13.13;;;;;;;;;;5039546;28;20025;-66
2021/08/14 07:34:47;;;;;;;21.40;13.48;;;;;;;;;;5045568;28;20044;-61
2021/08/14 07:37:13;;;;;;;20.42;11.90;;;;;;;;;;5043782;28;20029;-60
2021/08/14 07:39:38;;;;;;;19.83;12.65;;;;;;;;;;5043813;28;20017;-62
2021/08/14 07:42:04;;;;;;;23.00;11.52;;;;;;;;;;5042684;28;20024;-63
2021/08/14 07:44:29;;;;;;;23.83;13.23;;;;;;;;;;5041486;28;20502;-63
2021/08/14 07:46:54;;;;;;;25.83;13.38;;;;;;;;;;5044150;28;20456;-63
2021/08/14 07:49:20;;;;;;;23.17;13.48;;;;;;;;;;5049355;28;20490;-61
2021/08/14 07:51:45;;;;;;;22.00;13.55;;;;;;;;;;5038259;28;20029;-61
2021/08/14 07:54:11;;;;;;;23.85;14.07;;;;;;;;;;5045541;28;20032;-61
2021/08/14 07:56:36;;;;;;;27.48;13.60;;;;;;;;;;5040124;28;20514;-61
2021/08/14 07:59:02;;;;;;;25.95;13.45;;;;;;;;;;5047341;28;20033;-61
2021/08/14 08:01:27;;;;;;;27.05;13.40;;;;;;;;;;5041804;28;20223;-64
2021/08/14 08:03:53;;;;;;;25.33;14.43;;;;;;;;;;5045140;28;20025;-62
2021/08/14 08:06:18;;;;;;;28.25;14.00;;;;;;;;;;5037989;28;20134;-61
2021/08/14 08:08:43;;;;;;;24.98;13.95;;;;;;;;;;5038168;28;20048;-61
2021/08/14 08:11:10;;;;;;;26.17;14.07;;;;;;;;;;5042422;28;20095;-60
2021/08/14 08:13:35;;;;;;;21.02;13.38;;;;;;;;;;5045942;28;20040;-61
2021/08/14 08:16:01;;;;;;;24.98;13.68;;;;;;;;;;5039526;28;20021;-62
2021/08/14 08:18:26;;;;;;;26.73;14.10;;;;;;;;;;5040916;28;20013;-62
2021/08/14 08:20:52;;;;;;;23.08;13.30;;;;;;;;;;5039302;28;20034;-61
2021/08/14 08:23:17;;;;;;;27.10;14.18;;;;;;;;;;5035887;28;20048;-62
2021/08/14 08:25:44;;;;;;;21.88;13.32;;;;;;;;;;5040162;28;20396;-61
2021/08/14 08:28:09;;;;;;;23.55;13.45;;;;;;;;;;5039410;28;20418;-62
2021/08/14 08:30:35;;;;;;;24.58;14.40;;;;;;;;;;5036419;28;20104;-62
2021/08/14 08:33:01;;;;;;;23.85;13.63;;;;;;;;;;5038475;28;20037;-61
2021/08/14 08:35:26;;;;;;;24.10;13.93;;;;;;;;;;5049142;28;20029;-61
2021/08/14 08:37:51;;;;;;;26.15;12.45;;;;;;;;;;5041714;28;20052;-62
2021/08/14 08:40:19;;;;;;;24.02;13.68;;;;;;;;;;5043951;28;20029;-59
2021/08/14 08:42:46;;;;;;;20.00;11.93;;;;;;;;;;5042173;28;20032;-59
2021/08/14 08:45:12;;;;;;;23.42;14.13;;;;;;;;;;5043424;28;20047;-61
2021/08/14 08:47:41;;;;;;;21.15;13.18;;;;;;;;;;5038915;28;20025;-61
2021/08/14 08:50:07;;;;;;;;;;;;;;;;;;5037970;28;20041;-60
2021/08/14 08:52:33;;;;;;;22.45;12.48;;;;;;;;;;5041703;28;20509;-60
2021/08/14 08:54:59;;;;;;;26.95;13.95;;;;;;;;;;5044008;28;20033;-61
2021/08/14 08:57:24;;;;;;;27.30;13.57;;;;;;;;;;5037483;28;20117;-59
2021/08/14 08:59:50;;;;;;;20.88;13.68;;;;;;;;;;5041757;28;20063;-60
2021/08/14 09:02:27;;;;;;;24.25;13.88;;;;;;;;;;5035582;28;20025;-60
2021/08/14 09:05:17;;;;;;;25.60;13.32;;;;;;;;;;5042109;28;20045;-60
2021/08/14 09:07:45;;;;;;;20.35;13.60;;;;;;;;;;5043188;28;20074;-62
2021/08/14 09:10:16;;;;;;;20.85;13.45;;;;;;;;;;5042975;28;20032;-59
2021/08/14 09:12:43;;;;;;;26.02;15.32;;;;;;;;;;5040900;28;20028;-60
2021/08/14 09:15:21;;;;;;;33.75;16.48;;;;;;;;;;5036233;28;20087;-60
2021/08/14 09:17:47;;;;;;;24.60;14.38;;;;;;;;;;5039590;28;20065;-60
2021/08/14 09:20:16;;;;;;;26.33;14.13;;;;;;;;;;5042114;28;20022;-60
2021/08/14 09:23:03;;;;;;;24.67;13.70;;;;;;;;;;5041006;28;20029;-60
2021/08/14 09:25:43;;;;;;;19.95;13.00;;;;;;;;;;5043834;28;20040;-60
2021/08/14 09:28:11;;;;;;;23.00;13.95;;;;;;;;;;5039656;28;20045;-60
2021/08/14 09:30:45;;;;;;;28.27;14.02;;;;;;;;;;5045651;28;20029;-60
2021/08/14 09:33:13;;;;;;;24.40;13.35;;;;;;;;;;5041439;28;20156;-60
2021/08/14 09:35:39;;;;;;;31.13;14.57;;;;;;;;;;5036789;28;20511;-60
2021/08/14 09:38:07;;;;;;;25.15;14.32;;;;;;;;;;5043221;28;20080;-60
2021/08/14 09:40:51;;;;;;;28.33;13.60;;;;;;;;;;5044596;28;20366;-60
2021/08/14 09:43:33;;;;;;;21.90;13.23;;;;;;;;;;5044928;28;20036;-59
2021/08/14 09:45:58;;;;;;;22.30;13.48;;;;;;;;;;5044734;28;20029;-59
2021/08/14 09:48:25;;;;;;;25.00;14.10;;;;;;;;;;5037330;28;20040;-59
2021/08/14 09:50:52;;;;;;;42.22;24.35;;;;;;;;;;5045598;28;20397;-63
2021/08/14 09:53:23;;;;;;;32.65;18.98;;;;;;;;;;5039417;28;20034;-63
2021/08/14 09:56:12;;;;;;;29.20;16.98;;;;;;;;;;5040421;28;20029;-62
2021/08/14 09:58:39;;;;;;;26.27;14.60;;;;;;;;;;5038679;28;20029;-62
2021/08/14 10:01:07;;;;;;;110.00;54.22;;;;;;;;;;5039074;28;20033;-62
2021/08/14 10:03:33;;;;;;;51.42;28.13;;;;;;;;;;5034886;28;20048;-62
2021/08/14 10:06:01;;;;;;;53.00;27.05;;;;;;;;;;5038507;28;20021;-62
2021/08/14 10:08:27;;;;;;;29.10;16.75;;;;;;;;;;5039882;28;20064;-62
2021/08/14 10:10:54;;;;;;;74.95;41.47;;;;;;;;;;5044429;28;20488;-62
2021/08/14 10:13:20;;;;;;;45.97;26.00;;;;;;;;;;5034839;28;20025;-62
2021/08/14 10:15:46;;;;;;;37.80;19.20;;;;;;;;;;5036754;28;20052;-63
2021/08/14 10:18:14;;;;;;;32.58;18.00;;;;;;;;;;5039170;28;20505;-60
2021/08/14 10:20:40;;;;;;;27.80;15.15;;;;;;;;;;5041601;28;20153;-60
2021/08/14 10:23:09;;;;;;;37.28;22.85;;;;;;;;;;5040973;28;20049;-61
2021/08/14 10:25:38;;;;;;;39.40;24.13;;;;;;;;;;5036434;28;20022;-61
2021/08/14 10:28:06;;;;;;;27.67;16.23;;;;;;;;;;5032378;28;20352;-61
2021/08/14 10:30:44;;;;;;;27.13;14.98;;;;;;;;;;5050028;28;20028;-62
2021/08/14 10:33:40;;;;;;;71.47;41.73;;;;;;;;;;5041454;28;20033;-62
2021/08/14 10:36:18;;;;;;;70.55;39.45;;;;;;;;;;5030285;28;20057;-64
2021/08/14 10:38:45;;;;;;;54.45;30.08;;;;;;;;;;5038491;28;20487;-63
2021/08/14 10:41:11;;;;;;;32.05;18.35;;;;;;;;;;5045154;28;20029;-62
2021/08/14 10:43:52;;;;;;;28.42;14.60;;;;;;;;;;5042220;28;20053;-62
2021/08/14 10:46:51;;;;;;;25.08;15.15;;;;;;;;;;5047133;28;20047;-64
2021/08/14 10:49:31;;;;;;;22.20;13.95;;;;;;;;;;5007246;28;20052;-63
2021/08/14 10:52:03;;;;;;;25.92;14.48;;;;;;;;;;5050185;28;20099;-64
2021/08/14 10:54:28;;;;;;;23.27;13.30;;;;;;;;;;5043174;28;20036;-62
2021/08/14 10:56:55;;;;;;;31.95;14.40;;;;;;;;;;5042303;28;20025;-63
2021/08/14 10:59:36;;;;;;;21.42;13.23;;;;;;;;;;5041772;28;20029;-62
2021/08/14 11:02:08;;;;;;;23.08;13.20;;;;;;;;;;5039401;28;20033;-61
2021/08/14 11:04:47;;;;;;;25.05;14.32;;;;;;;;;;5045430;28;20025;-62
2021/08/14 11:07:18;;;;;;;21.95;13.70;;;;;;;;;;5041814;28;20056;-62
2021/08/14 11:09:48;;;;;;;23.77;15.18;;;;;;;;;;5045594;28;20499;-62
2021/08/14 11:12:48;;;;;;;27.40;14.55;;;;;;;;;;5045328;28;20021;-62
2021/08/14 11:15:14;;;;;;;22.60;13.30;;;;;;;;;;5047348;28;20035;-63
2021/08/14 11:17:40;;;;;;;24.83;13.93;;;;;;;;;;5044508;28;20040;-61
2021/08/14 11:20:24;;;;;;;23.77;14.68;;;;;;;;;;5043665;28;20310;-61
2021/08/14 11:22:57;;;;;;;31.30;14.45;;;;;;;;;;5044757;28;20029;-62
2021/08/14 11:25:29;;;;;;;24.83;13.98;;;;;;;;;;5035455;28;20611;-61
2021/08/14 11:27:59;;;;;;;24.73;13.40;;;;;;;;;;5039609;28;20064;-61
2021/08/14 11:30:27;;;;;;;23.60;15.30;;;;;;;;;;5043414;28;20029;-62
2021/08/14 11:32:54;;;;;;;21.20;13.85;;;;;;;;;;5043495;28;20470;-62
2021/08/14 11:35:22;;;;;;;27.10;15.63;;;;;;;;;;5044070;28;20527;-62
2021/08/14 11:37:55;;;;;;;27.40;14.82;;;;;;;;;;5041500;28;20031;-61
2021/08/14 11:40:26;;;;;;;24.30;14.60;;;;;;;;;;5051416;28;20548;-63
2021/08/14 11:42:56;;;;;;;25.15;13.77;;;;;;;;;;5050457;28;20071;-62
2021/08/14 11:45:22;;;;;;;23.27;14.23;;;;;;;;;;5051285;28;20107;-62
2021/08/14 11:47:59;;;;;;;25.55;15.13;;;;;;;;;;5049725;28;20116;-62
2021/08/14 11:50:32;;;;;;;26.25;14.35;;;;;;;;;;5044945;28;20033;-63
2021/08/14 11:52:58;;;;;;;25.48;14.25;;;;;;;;;;5040206;28;20032;-62
2021/08/14 11:55:23;;;;;;;31.13;14.40;;;;;;;;;;5028515;28;20099;-62
2021/08/14 11:57:50;;;;;;;22.83;14.10;;;;;;;;;;5040455;28;20029;-62
2021/08/14 12:00:23;;;;;;;30.65;15.27;;;;;;;;;;5043218;28;20025;-62
2021/08/14 12:03:02;;;;;;;32.53;15.10;;;;;;;;;;5037171;28;20395;-62
2021/08/14 12:05:27;;;;;;;24.23;14.25;;;;;;;;;;5035142;28;20342;-61
2021/08/14 12:07:53;;;;;;;27.38;14.75;;;;;;;;;;5040141;28;20033;-61
2021/08/14 12:10:21;;;;;;;23.88;14.90;;;;;;;;;;5042310;28;20021;-61
2021/08/14 12:13:02;;;;;;;25.45;14.48;;;;;;;;;;5032877;28;20456;-62
2021/08/14 12:15:41;;;;;;;25.48;13.77;;;;;;;;;;5033240;28;20045;-62
2021/08/14 12:18:07;;;;;;;27.70;15.25;;;;;;;;;;5030196;28;20041;-62
2021/08/14 12:20:35;;;;;;;21.17;14.18;;;;;;;;;;5037269;28;20041;-62
2021/08/14 12:23:30;;;;;;;24.20;14.25;;;;;;;;;;5035861;28;20017;-62
2021/08/14 12:25:58;;;;;;;22.65;13.60;;;;;;;;;;5037339;28;20033;-62
2021/08/14 12:28:29;;;;;;;23.92;14.88;;;;;;;;;;5042716;28;20369;-62
2021/08/14 12:31:00;;;;;;;22.27;14.07;;;;;;;;;;5037985;28;20033;-62
2021/08/14 12:33:31;;;;;;;22.55;14.88;;;;;;;;;;5035438;28;20041;-62
2021/08/14 12:35:58;;;;;;;23.42;13.15;;;;;;;;;;5034275;28;20591;-62
2021/08/14 12:38:24;;;;;;;28.15;14.45;;;;;;;;;;5032464;28;20063;-62
2021/08/14 12:40:49;;;;;;;23.98;13.68;;;;;;;;;;5037428;28;20455;-62
2021/08/14 12:43:19;;;;;;;27.48;13.75;;;;;;;;;;5033263;28;20460;-61
2021/08/14 12:45:45;;;;;;;24.55;14.95;;;;;;;;;;5034237;28;20107;-62
2021/08/14 12:48:11;;;;;;;23.33;14.45;;;;;;;;;;5035034;28;20512;-62
2021/08/14 12:50:39;;;;;;;23.05;13.65;;;;;;;;;;5037583;28;20031;-62
2021/08/14 12:53:05;;;;;;;25.67;14.05;;;;;;;;;;5032059;28;20029;-62
2021/08/14 12:55:40;;;;;;;31.92;14.27;;;;;;;;;;5036190;28;20159;-62
2021/08/14 12:58:25;;;;;;;26.48;14.43;;;;;;;;;;5036595;28;20033;-62
2021/08/14 13:00:53;;;;;;;30.17;14.35;;;;;;;;;;5040262;28;20496;-62
2021/08/14 13:03:19;;;;;;;29.27;15.63;;;;;;;;;;5042616;28;20029;-62
2021/08/14 13:05:45;;;;;;;24.92;13.63;;;;;;;;;;5043873;28;20558;-63
2021/08/14 13:08:11;;;;;;;23.45;14.07;;;;;;;;;;5044185;28;20032;-62
2021/08/14 13:10:38;;;;;;;24.67;14.15;;;;;;;;;;5040641;28;20024;-62
2021/08/14 13:13:06;;;;;;;24.50;14.20;;;;;;;;;;5044812;28;20503;-62
2021/08/14 13:15:32;;;;;;;25.13;14.23;;;;;;;;;;5037786;28;20116;-62
2021/08/14 13:17:58;;;;;;;24.95;14.38;;;;;;;;;;5042633;28;20447;-62
2021/08/14 13:20:26;;;;;;;24.30;14.00;;;;;;;;;;5037089;28;20091;-62
2021/08/14 13:22:53;;;;;;;;;;;;;;;;;;5039078;28;20025;-62
2021/08/14 13:25:20;;;;;;;24.92;13.60;;;;;;;;;;5043453;28;20027;-62
2021/08/14 13:27:46;;;;;;;26.85;13.95;;;;;;;;;;5039341;28;20164;-63
2021/08/14 13:30:19;;;;;;;24.05;13.32;;;;;;;;;;5039679;28;20518;-62
2021/08/14 13:32:45;;;;;;;26.45;13.95;;;;;;;;;;5036537;28;20039;-62
2021/08/14 13:35:12;;;;;;;26.67;13.20;;;;;;;;;;5035120;28;20395;-62
2021/08/14 13:37:38;;;;;;;28.30;14.38;;;;;;;;;;5044212;28;20025;-62
2021/08/14 13:40:06;;;;;;;27.05;13.65;;;;;;;;;;5040211;28;20146;-62
2021/08/14 13:42:33;;;;;;;25.17;13.77;;;;;;;;;;5044161;28;20032;-63
2021/08/14 13:44:58;;;;;;;29.98;13.70;;;;;;;;;;5048491;28;20036;-62
2021/08/14 13:47:24;;;;;;;26.60;13.50;;;;;;;;;;5044003;28;20051;-62
2021/08/14 13:49:49;;;;;;;26.88;12.80;;;;;;;;;;5039518;28;20086;-62
2021/08/14 13:52:15;;;;;;;24.30;13.05;;;;;;;;;;5041242;28;20104;-62
2021/08/14 13:54:40;;;;;;;20.80;12.80;;;;;;;;;;5040167;28;20029;-63
2021/08/14 13:57:06;;;;;;;26.92;13.00;;;;;;;;;;5040104;28;20032;-63
2021/08/14 13:59:31;;;;;;;27.48;13.18;;;;;;;;;;5034326;28;20112;-62
2021/08/14 14:01:57;;;;;;;24.85;13.13;;;;;;;;;;5046645;28;20044;-62
2021/08/14 14:04:22;;;;;;;28.75;13.70;;;;;;;;;;5043213;28;20037;-63
2021/08/14 14:06:48;;;;;;;27.20;14.05;;;;;;;;;;5042764;28;20032;-63
2021/08/14 14:09:13;;;;;;;23.67;13.65;;;;;;;;;;5041563;28;20024;-63
2021/08/14 14:11:39;;;;;;;20.45;12.82;;;;;;;;;;5042597;28;20391;-63
2021/08/14 14:14:04;;;;;;;24.58;13.30;;;;;;;;;;5047592;28;20109;-63
2021/08/14 14:16:30;;;;;;;26.13;13.88;;;;;;;;;;5045462;28;20428;-61
2021/08/14 14:18:56;;;;;;;19.67;12.43;;;;;;;;;;5044870;28;20388;-63